sensor_id;sensor_type;location;lat;lon;timestamp;P1;durP1;ratioP1;P2;durP2;ratioP2
39448;SDS011;25151;45.566;9.382;2023-03-20T00:23:34;6.10;;;2.38;;
39448;SDS011;25151;45.566;9.382;2023-03-20T00:26:51;6.40;;;1.70;;
39448;SDS011;25151;45.566;9.382;2023-03-20T00:33:47;4.30;;;1.88;;
39448;SDS011;25151;45.566;9.382;2023-03-20T00:50:01;2.65;;;1.60;;
39448;SDS011;25151;45.566;9.382;2023-03-20T00:53:53;3.25;;;2.08;;
39448;SDS011;25151;45.566;9.382;2023-03-20T01:05:27;3.28;;;2.00;;
39448;SDS011;25151;45.566;9.382;2023-03-20T01:08:54;2.72;;;1.90;;
39448;SDS011;25151;45.566;9.382;2023-03-20T01:16:26;5.20;;;2.22;;
39448;SDS011;25151;45.566;9.382;2023-03-20T01:19:48;3.53;;;2.00;;
39448;SDS011;25151;45.566;9.382;2023-03-20T01:23:15;4.85;;;2.00;;
39448;SDS011;25151;45.566;9.382;2023-03-20T01:26:46;6.57;;;2.38;;
39448;SDS011;25151;45.566;9.382;2023-03-20T01:30:18;3.00;;;1.85;;
39448;SDS011;25151;45.566;9.382;2023-03-20T01:38:26;3.35;;;1.90;;
39448;SDS011;25151;45.566;9.382;2023-03-20T01:53:45;2.97;;;1.95;;
39448;SDS011;25151;45.566;9.382;2023-03-20T01:57:37;3.13;;;1.98;;
39448;SDS011;25151;45.566;9.382;2023-03-20T02:01:17;2.55;;;1.77;;
39448;SDS011;25151;45.566;9.382;2023-03-20T02:05:01;2.63;;;1.75;;
39448;SDS011;25151;45.566;9.382;2023-03-20T02:08:42;2.20;;;1.65;;
39448;SDS011;25151;45.566;9.382;2023-03-20T02:11:59;5.18;;;2.17;;
39448;SDS011;25151;45.566;9.382;2023-03-20T02:15:30;2.10;;;1.60;;
39448;SDS011;25151;45.566;9.382;2023-03-20T02:19:06;3.13;;;2.05;;
39448;SDS011;25151;45.566;9.382;2023-03-20T02:29:23;2.83;;;2.08;;
39448;SDS011;25151;45.566;9.382;2023-03-20T03:06:35;2.55;;;1.90;;
39448;SDS011;25151;45.566;9.382;2023-03-20T03:14:46;4.03;;;1.98;;
39448;SDS011;25151;45.566;9.382;2023-03-20T03:34:49;2.55;;;1.80;;
39448;SDS011;25151;45.566;9.382;2023-03-20T03:45:02;3.58;;;2.17;;
39448;SDS011;25151;45.566;9.382;2023-03-20T03:48:19;2.90;;;2.20;;
39448;SDS011;25151;45.566;9.382;2023-03-20T03:51:35;3.15;;;2.40;;
39448;SDS011;25151;45.566;9.382;2023-03-20T03:55:02;2.65;;;2.25;;
39448;SDS011;25151;45.566;9.382;2023-03-20T03:58:28;2.72;;;1.88;;
39448;SDS011;25151;45.566;9.382;2023-03-20T04:01:48;2.58;;;1.90;;
39448;SDS011;25151;45.566;9.382;2023-03-20T05:06:32;2.80;;;2.10;;
39448;SDS011;25151;45.566;9.382;2023-03-20T05:21:46;2.47;;;2.25;;
39448;SDS011;25151;45.566;9.382;2023-03-20T05:29:20;3.38;;;2.22;;
39448;SDS011;25151;45.566;9.382;2023-03-20T05:33:02;3.08;;;2.40;;
39448;SDS011;25151;45.566;9.382;2023-03-20T05:36:21;3.70;;;2.35;;
39448;SDS011;25151;45.566;9.382;2023-03-20T05:39:55;3.63;;;2.30;;
39448;SDS011;25151;45.566;9.382;2023-03-20T05:43:38;3.35;;;2.17;;
39448;SDS011;25151;45.566;9.382;2023-03-20T05:47:24;3.15;;;1.92;;
39448;SDS011;25151;45.566;9.382;2023-03-20T05:50:30;2.85;;;2.22;;
39448;SDS011;25151;45.566;9.382;2023-03-20T05:53:36;2.55;;;2.10;;
39448;SDS011;25151;45.566;9.382;2023-03-20T05:56:45;5.22;;;2.40;;
39448;SDS011;25151;45.566;9.382;2023-03-20T05:59:52;4.07;;;2.05;;
39448;SDS011;25151;45.566;9.382;2023-03-20T06:03:21;2.63;;;2.13;;
39448;SDS011;25151;45.566;9.382;2023-03-20T06:06:52;2.95;;;2.00;;
39448;SDS011;25151;45.566;9.382;2023-03-20T06:10:21;4.15;;;1.95;;
39448;SDS011;25151;45.566;9.382;2023-03-20T06:13:45;3.05;;;2.40;;
39448;SDS011;25151;45.566;9.382;2023-03-20T06:17:10;3.63;;;2.30;;
39448;SDS011;25151;45.566;9.382;2023-03-20T06:20:31;2.78;;;2.10;;
39448;SDS011;25151;45.566;9.382;2023-03-20T06:23:45;2.50;;;2.00;;
39448;SDS011;25151;45.566;9.382;2023-03-20T06:27:11;3.72;;;2.15;;
39448;SDS011;25151;45.566;9.382;2023-03-20T06:30:21;2.90;;;2.13;;
39448;SDS011;25151;45.566;9.382;2023-03-20T06:33:39;2.72;;;1.95;;
39448;SDS011;25151;45.566;9.382;2023-03-20T06:36:52;5.90;;;2.70;;
39448;SDS011;25151;45.566;9.382;2023-03-20T06:40:19;3.03;;;2.10;;
39448;SDS011;25151;45.566;9.382;2023-03-20T06:43:58;5.18;;;2.33;;
39448;SDS011;25151;45.566;9.382;2023-03-20T06:47:14;3.03;;;2.28;;
39448;SDS011;25151;45.566;9.382;2023-03-20T06:50:37;3.33;;;1.98;;
39448;SDS011;25151;45.566;9.382;2023-03-20T06:53:52;2.80;;;2.10;;
39448;SDS011;25151;45.566;9.382;2023-03-20T06:57:07;3.97;;;2.00;;
39448;SDS011;25151;45.566;9.382;2023-03-20T07:00:24;2.03;;;1.83;;
39448;SDS011;25151;45.566;9.382;2023-03-20T07:06:57;2.67;;;2.13;;
39448;SDS011;25151;45.566;9.382;2023-03-20T07:10:15;3.72;;;2.10;;
39448;SDS011;25151;45.566;9.382;2023-03-20T07:13:26;3.17;;;2.10;;
39448;SDS011;25151;45.566;9.382;2023-03-20T07:16:49;2.63;;;2.00;;
39448;SDS011;25151;45.566;9.382;2023-03-20T07:20:19;2.85;;;2.22;;
39448;SDS011;25151;45.566;9.382;2023-03-20T07:23:28;3.53;;;2.20;;
39448;SDS011;25151;45.566;9.382;2023-03-20T07:27:00;3.03;;;2.28;;
39448;SDS011;25151;45.566;9.382;2023-03-20T07:30:17;3.53;;;2.60;;
39448;SDS011;25151;45.566;9.382;2023-03-20T07:33:29;2.88;;;2.08;;
39448;SDS011;25151;45.566;9.382;2023-03-20T07:36:44;7.63;;;2.58;;
39448;SDS011;25151;45.566;9.382;2023-03-20T07:39:56;4.43;;;2.05;;
39448;SDS011;25151;45.566;9.382;2023-03-20T07:43:09;6.57;;;2.00;;
39448;SDS011;25151;45.566;9.382;2023-03-20T07:46:10;3.47;;;2.30;;
39448;SDS011;25151;45.566;9.382;2023-03-20T07:49:12;4.15;;;2.20;;
39448;SDS011;25151;45.566;9.382;2023-03-20T07:52:13;3.17;;;2.13;;
39448;SDS011;25151;45.566;9.382;2023-03-20T07:55:16;4.15;;;2.00;;
39448;SDS011;25151;45.566;9.382;2023-03-20T07:58:18;4.95;;;1.83;;
39448;SDS011;25151;45.566;9.382;2023-03-20T08:01:22;2.88;;;2.00;;
39448;SDS011;25151;45.566;9.382;2023-03-20T08:04:23;3.10;;;1.75;;
39448;SDS011;25151;45.566;9.382;2023-03-20T08:07:24;9.50;;;2.42;;
39448;SDS011;25151;45.566;9.382;2023-03-20T08:10:29;3.47;;;1.80;;
39448;SDS011;25151;45.566;9.382;2023-03-20T08:13:30;3.05;;;2.00;;
39448;SDS011;25151;45.566;9.382;2023-03-20T08:16:33;4.00;;;2.47;;
39448;SDS011;25151;45.566;9.382;2023-03-20T08:19:35;4.00;;;2.00;;
39448;SDS011;25151;45.566;9.382;2023-03-20T08:22:45;3.72;;;2.35;;
39448;SDS011;25151;45.566;9.382;2023-03-20T08:25:49;4.80;;;2.00;;
39448;SDS011;25151;45.566;9.382;2023-03-20T08:28:51;4.80;;;2.55;;
39448;SDS011;25151;45.566;9.382;2023-03-20T08:31:51;3.45;;;1.90;;
39448;SDS011;25151;45.566;9.382;2023-03-20T08:34:52;4.13;;;2.40;;
39448;SDS011;25151;45.566;9.382;2023-03-20T08:37:54;5.03;;;1.92;;
39448;SDS011;25151;45.566;9.382;2023-03-20T08:40:56;6.28;;;2.42;;
39448;SDS011;25151;45.566;9.382;2023-03-20T08:43:58;3.50;;;1.80;;
39448;SDS011;25151;45.566;9.382;2023-03-20T08:47:01;4.88;;;2.03;;
39448;SDS011;25151;45.566;9.382;2023-03-20T08:50:07;2.70;;;2.03;;
39448;SDS011;25151;45.566;9.382;2023-03-20T08:53:09;2.65;;;1.80;;
39448;SDS011;25151;45.566;9.382;2023-03-20T08:56:10;3.45;;;1.80;;
39448;SDS011;25151;45.566;9.382;2023-03-20T08:59:11;5.28;;;2.28;;
39448;SDS011;25151;45.566;9.382;2023-03-20T09:02:12;4.47;;;2.42;;
39448;SDS011;25151;45.566;9.382;2023-03-20T09:05:20;4.88;;;2.20;;
39448;SDS011;25151;45.566;9.382;2023-03-20T09:08:22;4.10;;;1.98;;
39448;SDS011;25151;45.566;9.382;2023-03-20T09:11:24;4.03;;;1.90;;
39448;SDS011;25151;45.566;9.382;2023-03-20T09:14:26;4.78;;;1.65;;
39448;SDS011;25151;45.566;9.382;2023-03-20T09:17:27;3.55;;;2.25;;
39448;SDS011;25151;45.566;9.382;2023-03-20T09:20:28;4.60;;;2.22;;
39448;SDS011;25151;45.566;9.382;2023-03-20T09:23:30;11.13;;;3.83;;
39448;SDS011;25151;45.566;9.382;2023-03-20T09:26:31;6.22;;;2.67;;
39448;SDS011;25151;45.566;9.382;2023-03-20T09:29:33;5.78;;;2.40;;
39448;SDS011;25151;45.566;9.382;2023-03-20T09:32:34;3.17;;;2.10;;
39448;SDS011;25151;45.566;9.382;2023-03-20T09:35:36;7.45;;;2.10;;
39448;SDS011;25151;45.566;9.382;2023-03-20T09:38:36;5.00;;;2.30;;
39448;SDS011;25151;45.566;9.382;2023-03-20T09:41:37;8.68;;;2.63;;
39448;SDS011;25151;45.566;9.382;2023-03-20T09:48:13;9.93;;;2.67;;
39448;SDS011;25151;45.566;9.382;2023-03-20T09:51:27;5.15;;;2.67;;
39448;SDS011;25151;45.566;9.382;2023-03-20T09:54:40;3.85;;;2.03;;
39448;SDS011;25151;45.566;9.382;2023-03-20T09:57:52;3.53;;;2.08;;
39448;SDS011;25151;45.566;9.382;2023-03-20T10:00:57;10.50;;;2.55;;
39448;SDS011;25151;45.566;9.382;2023-03-20T10:04:06;8.75;;;2.15;;
39448;SDS011;25151;45.566;9.382;2023-03-20T10:07:09;3.67;;;2.35;;
39448;SDS011;25151;45.566;9.382;2023-03-20T10:10:16;6.75;;;2.85;;
39448;SDS011;25151;45.566;9.382;2023-03-20T10:23:25;5.97;;;2.63;;
39448;SDS011;25151;45.566;9.382;2023-03-20T10:26:34;5.70;;;2.40;;
39448;SDS011;25151;45.566;9.382;2023-03-20T10:29:44;5.38;;;2.08;;
39448;SDS011;25151;45.566;9.382;2023-03-20T10:43:29;4.72;;;2.35;;
39448;SDS011;25151;45.566;9.382;2023-03-20T10:46:40;2.90;;;2.08;;
39448;SDS011;25151;45.566;9.382;2023-03-20T10:49:56;4.88;;;2.20;;
39448;SDS011;25151;45.566;9.382;2023-03-20T10:53:01;6.45;;;2.63;;
39448;SDS011;25151;45.566;9.382;2023-03-20T10:56:07;3.25;;;2.20;;
39448;SDS011;25151;45.566;9.382;2023-03-20T11:02:28;4.03;;;2.63;;
39448;SDS011;25151;45.566;9.382;2023-03-20T11:05:33;4.55;;;2.20;;
39448;SDS011;25151;45.566;9.382;2023-03-20T11:08:37;5.50;;;2.22;;
39448;SDS011;25151;45.566;9.382;2023-03-20T11:11:40;3.35;;;2.10;;
39448;SDS011;25151;45.566;9.382;2023-03-20T11:14:45;3.90;;;2.38;;
39448;SDS011;25151;45.566;9.382;2023-03-20T11:17:56;8.27;;;2.72;;
39448;SDS011;25151;45.566;9.382;2023-03-20T11:21:01;6.57;;;2.05;;
39448;SDS011;25151;45.566;9.382;2023-03-20T11:24:04;3.33;;;2.30;;
39448;SDS011;25151;45.566;9.382;2023-03-20T11:27:09;3.55;;;2.22;;
39448;SDS011;25151;45.566;9.382;2023-03-20T11:30:15;3.35;;;1.90;;
39448;SDS011;25151;45.566;9.382;2023-03-20T11:33:17;4.20;;;2.17;;
39448;SDS011;25151;45.566;9.382;2023-03-20T11:36:20;7.05;;;2.40;;
39448;SDS011;25151;45.566;9.382;2023-03-20T11:39:26;4.85;;;2.13;;
39448;SDS011;25151;45.566;9.382;2023-03-20T11:42:31;5.43;;;2.33;;
39448;SDS011;25151;45.566;9.382;2023-03-20T11:45:37;4.82;;;2.30;;
39448;SDS011;25151;45.566;9.382;2023-03-20T11:48:43;6.15;;;2.97;;
39448;SDS011;25151;45.566;9.382;2023-03-20T11:51:45;3.45;;;2.40;;
39448;SDS011;25151;45.566;9.382;2023-03-20T11:54:51;6.03;;;3.47;;
39448;SDS011;25151;45.566;9.382;2023-03-20T11:57:59;5.80;;;2.10;;
39448;SDS011;25151;45.566;9.382;2023-03-20T12:01:04;6.55;;;2.13;;
39448;SDS011;25151;45.566;9.382;2023-03-20T12:04:32;6.82;;;2.35;;
39448;SDS011;25151;45.566;9.382;2023-03-20T12:07:45;5.43;;;2.88;;
39448;SDS011;25151;45.566;9.382;2023-03-20T12:10:54;5.75;;;2.28;;
39448;SDS011;25151;45.566;9.382;2023-03-20T12:13:59;4.90;;;2.53;;
39448;SDS011;25151;45.566;9.382;2023-03-20T12:20:43;5.65;;;2.38;;
39448;SDS011;25151;45.566;9.382;2023-03-20T12:24:25;5.85;;;2.20;;
39448;SDS011;25151;45.566;9.382;2023-03-20T12:27:35;6.15;;;2.50;;
39448;SDS011;25151;45.566;9.382;2023-03-20T12:34:31;7.50;;;2.70;;
39448;SDS011;25151;45.566;9.382;2023-03-20T12:37:37;7.53;;;2.80;;
39448;SDS011;25151;45.566;9.382;2023-03-20T12:40:41;2.95;;;2.08;;
39448;SDS011;25151;45.566;9.382;2023-03-20T12:43:58;3.88;;;2.05;;
39448;SDS011;25151;45.566;9.382;2023-03-20T12:51:08;4.00;;;1.90;;
39448;SDS011;25151;45.566;9.382;2023-03-20T12:57:54;3.33;;;1.95;;
39448;SDS011;25151;45.566;9.382;2023-03-20T13:04:40;3.30;;;2.20;;
39448;SDS011;25151;45.566;9.382;2023-03-20T13:22:18;3.83;;;2.42;;
39448;SDS011;25151;45.566;9.382;2023-03-20T13:28:54;3.78;;;2.30;;
39448;SDS011;25151;45.566;9.382;2023-03-20T13:32:10;4.88;;;1.95;;
39448;SDS011;25151;45.566;9.382;2023-03-20T13:38:52;4.30;;;1.88;;
39448;SDS011;25151;45.566;9.382;2023-03-20T13:41:58;5.03;;;1.95;;
39448;SDS011;25151;45.566;9.382;2023-03-20T13:45:05;2.80;;;2.50;;
39448;SDS011;25151;45.566;9.382;2023-03-20T13:48:34;5.57;;;2.10;;
39448;SDS011;25151;45.566;9.382;2023-03-20T13:51:40;3.53;;;2.05;;
39448;SDS011;25151;45.566;9.382;2023-03-20T13:58:31;3.45;;;2.08;;
39448;SDS011;25151;45.566;9.382;2023-03-20T14:05:10;4.40;;;2.15;;
39448;SDS011;25151;45.566;9.382;2023-03-20T14:08:20;3.78;;;1.83;;
39448;SDS011;25151;45.566;9.382;2023-03-20T14:11:33;2.40;;;1.83;;
39448;SDS011;25151;45.566;9.382;2023-03-20T14:14:54;6.50;;;2.45;;
39448;SDS011;25151;45.566;9.382;2023-03-20T14:17:57;3.20;;;2.05;;
39448;SDS011;25151;45.566;9.382;2023-03-20T14:21:09;4.00;;;2.30;;
39448;SDS011;25151;45.566;9.382;2023-03-20T14:24:14;5.80;;;2.92;;
39448;SDS011;25151;45.566;9.382;2023-03-20T14:27:19;2.78;;;1.98;;
39448;SDS011;25151;45.566;9.382;2023-03-20T14:33:31;3.45;;;2.20;;
39448;SDS011;25151;45.566;9.382;2023-03-20T14:36:44;5.45;;;1.98;;
39448;SDS011;25151;45.566;9.382;2023-03-20T14:40:01;4.13;;;1.90;;
39448;SDS011;25151;45.566;9.382;2023-03-20T14:43:24;4.28;;;1.90;;
39448;SDS011;25151;45.566;9.382;2023-03-20T14:46:53;2.92;;;1.92;;
39448;SDS011;25151;45.566;9.382;2023-03-20T14:50:04;4.65;;;2.05;;
39448;SDS011;25151;45.566;9.382;2023-03-20T14:56:21;4.00;;;1.75;;
39448;SDS011;25151;45.566;9.382;2023-03-20T14:59:28;3.50;;;2.00;;
39448;SDS011;25151;45.566;9.382;2023-03-20T15:02:33;7.47;;;2.13;;
39448;SDS011;25151;45.566;9.382;2023-03-20T15:05:37;5.47;;;1.95;;
39448;SDS011;25151;45.566;9.382;2023-03-20T15:08:43;3.35;;;2.03;;
39448;SDS011;25151;45.566;9.382;2023-03-20T15:11:49;5.30;;;2.30;;
39448;SDS011;25151;45.566;9.382;2023-03-20T15:18:18;4.35;;;2.05;;
39448;SDS011;25151;45.566;9.382;2023-03-20T15:21:26;3.42;;;1.80;;
39448;SDS011;25151;45.566;9.382;2023-03-20T15:24:32;3.45;;;2.15;;
39448;SDS011;25151;45.566;9.382;2023-03-20T15:27:32;3.75;;;1.60;;
39448;SDS011;25151;45.566;9.382;2023-03-20T15:30:35;3.58;;;1.77;;
39448;SDS011;25151;45.566;9.382;2023-03-20T15:33:40;4.03;;;2.30;;
39448;SDS011;25151;45.566;9.382;2023-03-20T15:36:42;3.55;;;1.75;;
39448;SDS011;25151;45.566;9.382;2023-03-20T15:39:44;3.20;;;2.00;;
39448;SDS011;25151;45.566;9.382;2023-03-20T15:42:57;3.65;;;2.00;;
39448;SDS011;25151;45.566;9.382;2023-03-20T15:46:00;7.28;;;2.35;;
39448;SDS011;25151;45.566;9.382;2023-03-20T15:49:05;1.88;;;1.60;;
39448;SDS011;25151;45.566;9.382;2023-03-20T15:55:31;4.85;;;2.20;;
39448;SDS011;25151;45.566;9.382;2023-03-20T15:58:33;4.53;;;2.10;;
39448;SDS011;25151;45.566;9.382;2023-03-20T16:01:35;6.93;;;2.00;;
39448;SDS011;25151;45.566;9.382;2023-03-20T16:04:42;4.25;;;2.20;;
39448;SDS011;25151;45.566;9.382;2023-03-20T16:07:45;3.58;;;2.10;;
39448;SDS011;25151;45.566;9.382;2023-03-20T16:10:46;3.08;;;1.85;;
39448;SDS011;25151;45.566;9.382;2023-03-20T16:13:47;4.93;;;2.60;;
39448;SDS011;25151;45.566;9.382;2023-03-20T16:16:51;5.20;;;2.03;;
39448;SDS011;25151;45.566;9.382;2023-03-20T16:19:54;4.35;;;1.90;;
39448;SDS011;25151;45.566;9.382;2023-03-20T16:22:58;3.53;;;1.90;;
39448;SDS011;25151;45.566;9.382;2023-03-20T16:26:02;5.05;;;2.22;;
39448;SDS011;25151;45.566;9.382;2023-03-20T16:29:05;2.88;;;1.63;;
39448;SDS011;25151;45.566;9.382;2023-03-20T16:32:08;3.28;;;2.10;;
39448;SDS011;25151;45.566;9.382;2023-03-20T16:35:18;6.60;;;2.33;;
39448;SDS011;25151;45.566;9.382;2023-03-20T16:41:27;4.32;;;2.17;;
39448;SDS011;25151;45.566;9.382;2023-03-20T16:44:33;4.30;;;2.05;;
39448;SDS011;25151;45.566;9.382;2023-03-20T16:47:36;3.65;;;2.25;;
39448;SDS011;25151;45.566;9.382;2023-03-20T16:50:41;4.78;;;2.15;;
39448;SDS011;25151;45.566;9.382;2023-03-20T16:53:45;6.55;;;2.20;;
39448;SDS011;25151;45.566;9.382;2023-03-20T16:56:51;3.33;;;2.30;;
39448;SDS011;25151;45.566;9.382;2023-03-20T16:59:55;5.18;;;3.38;;
39448;SDS011;25151;45.566;9.382;2023-03-20T17:03:10;6.60;;;3.50;;
39448;SDS011;25151;45.566;9.382;2023-03-20T17:06:34;5.05;;;2.58;;
39448;SDS011;25151;45.566;9.382;2023-03-20T17:09:36;4.43;;;2.78;;
39448;SDS011;25151;45.566;9.382;2023-03-20T17:12:52;5.68;;;3.17;;
39448;SDS011;25151;45.566;9.382;2023-03-20T17:15:54;6.88;;;4.57;;
39448;SDS011;25151;45.566;9.382;2023-03-20T17:19:02;8.88;;;5.55;;
39448;SDS011;25151;45.566;9.382;2023-03-20T17:22:13;5.38;;;3.70;;
39448;SDS011;25151;45.566;9.382;2023-03-20T17:25:18;5.45;;;3.30;;
39448;SDS011;25151;45.566;9.382;2023-03-20T17:28:20;5.40;;;3.80;;
39448;SDS011;25151;45.566;9.382;2023-03-20T17:31:24;5.95;;;4.53;;
39448;SDS011;25151;45.566;9.382;2023-03-20T17:34:25;8.90;;;5.68;;
39448;SDS011;25151;45.566;9.382;2023-03-20T17:37:26;8.63;;;6.15;;
39448;SDS011;25151;45.566;9.382;2023-03-20T17:40:29;6.72;;;5.82;;
39448;SDS011;25151;45.566;9.382;2023-03-20T17:43:30;10.38;;;4.97;;
39448;SDS011;25151;45.566;9.382;2023-03-20T17:46:31;8.70;;;5.07;;
39448;SDS011;25151;45.566;9.382;2023-03-20T17:49:33;7.80;;;4.68;;
39448;SDS011;25151;45.566;9.382;2023-03-20T17:52:34;10.20;;;5.15;;
39448;SDS011;25151;45.566;9.382;2023-03-20T17:55:35;8.27;;;5.72;;
39448;SDS011;25151;45.566;9.382;2023-03-20T17:58:35;10.82;;;5.47;;
39448;SDS011;25151;45.566;9.382;2023-03-20T18:01:36;8.10;;;5.00;;
39448;SDS011;25151;45.566;9.382;2023-03-20T18:04:37;7.25;;;4.40;;
39448;SDS011;25151;45.566;9.382;2023-03-20T18:07:39;6.40;;;3.97;;
39448;SDS011;25151;45.566;9.382;2023-03-20T18:10:42;10.45;;;4.15;;
39448;SDS011;25151;45.566;9.382;2023-03-20T18:13:43;8.23;;;4.07;;
39448;SDS011;25151;45.566;9.382;2023-03-20T18:16:44;7.35;;;4.25;;
39448;SDS011;25151;45.566;9.382;2023-03-20T18:19:45;7.43;;;3.70;;
39448;SDS011;25151;45.566;9.382;2023-03-20T18:22:49;7.22;;;3.90;;
39448;SDS011;25151;45.566;9.382;2023-03-20T18:25:49;4.60;;;3.15;;
39448;SDS011;25151;45.566;9.382;2023-03-20T18:28:51;6.00;;;3.97;;
39448;SDS011;25151;45.566;9.382;2023-03-20T18:31:53;5.60;;;3.47;;
39448;SDS011;25151;45.566;9.382;2023-03-20T18:34:54;5.22;;;3.60;;
39448;SDS011;25151;45.566;9.382;2023-03-20T18:37:55;6.18;;;3.88;;
39448;SDS011;25151;45.566;9.382;2023-03-20T18:40:57;5.40;;;3.42;;
39448;SDS011;25151;45.566;9.382;2023-03-20T18:44:01;6.10;;;3.50;;
39448;SDS011;25151;45.566;9.382;2023-03-20T18:47:01;3.85;;;3.00;;
39448;SDS011;25151;45.566;9.382;2023-03-20T18:50:02;6.28;;;3.47;;
39448;SDS011;25151;45.566;9.382;2023-03-20T18:53:04;6.45;;;2.85;;
39448;SDS011;25151;45.566;9.382;2023-03-20T18:56:13;4.15;;;3.03;;
39448;SDS011;25151;45.566;9.382;2023-03-20T18:59:16;7.30;;;3.60;;
39448;SDS011;25151;45.566;9.382;2023-03-20T19:02:18;6.20;;;2.65;;
39448;SDS011;25151;45.566;9.382;2023-03-20T19:05:20;3.15;;;2.67;;
39448;SDS011;25151;45.566;9.382;2023-03-20T19:08:23;7.55;;;2.67;;
39448;SDS011;25151;45.566;9.382;2023-03-20T19:11:25;5.43;;;2.42;;
39448;SDS011;25151;45.566;9.382;2023-03-20T19:14:29;5.63;;;2.75;;
39448;SDS011;25151;45.566;9.382;2023-03-20T19:17:31;6.95;;;2.85;;
39448;SDS011;25151;45.566;9.382;2023-03-20T19:20:37;6.68;;;2.33;;
39448;SDS011;25151;45.566;9.382;2023-03-20T19:23:39;4.65;;;2.83;;
39448;SDS011;25151;45.566;9.382;2023-03-20T19:26:40;4.82;;;2.45;;
39448;SDS011;25151;45.566;9.382;2023-03-20T19:29:41;6.82;;;3.08;;
39448;SDS011;25151;45.566;9.382;2023-03-20T19:32:42;6.05;;;2.42;;
39448;SDS011;25151;45.566;9.382;2023-03-20T19:35:43;3.78;;;2.47;;
39448;SDS011;25151;45.566;9.382;2023-03-20T19:38:47;5.40;;;2.25;;
39448;SDS011;25151;45.566;9.382;2023-03-20T19:41:47;6.20;;;2.70;;
39448;SDS011;25151;45.566;9.382;2023-03-20T19:44:49;4.32;;;3.00;;
39448;SDS011;25151;45.566;9.382;2023-03-20T19:47:51;4.35;;;2.40;;
39448;SDS011;25151;45.566;9.382;2023-03-20T19:50:52;4.70;;;2.22;;
39448;SDS011;25151;45.566;9.382;2023-03-20T19:53:55;5.15;;;2.70;;
39448;SDS011;25151;45.566;9.382;2023-03-20T19:56:56;3.80;;;2.50;;
39448;SDS011;25151;45.566;9.382;2023-03-20T19:59:57;5.75;;;2.70;;
39448;SDS011;25151;45.566;9.382;2023-03-20T20:02:59;3.38;;;2.13;;
39448;SDS011;25151;45.566;9.382;2023-03-20T20:06:00;3.58;;;2.63;;
39448;SDS011;25151;45.566;9.382;2023-03-20T20:09:03;5.15;;;2.53;;
39448;SDS011;25151;45.566;9.382;2023-03-20T20:12:04;5.10;;;2.10;;
39448;SDS011;25151;45.566;9.382;2023-03-20T20:15:06;3.50;;;2.30;;
39448;SDS011;25151;45.566;9.382;2023-03-20T20:18:09;3.88;;;2.00;;
39448;SDS011;25151;45.566;9.382;2023-03-20T20:21:10;3.00;;;2.50;;
39448;SDS011;25151;45.566;9.382;2023-03-20T20:24:12;4.63;;;2.70;;
39448;SDS011;25151;45.566;9.382;2023-03-20T20:27:26;8.63;;;2.28;;
39448;SDS011;25151;45.566;9.382;2023-03-20T20:30:54;5.32;;;2.55;;
39448;SDS011;25151;45.566;9.382;2023-03-20T20:33:56;3.60;;;2.38;;
39448;SDS011;25151;45.566;9.382;2023-03-20T20:36:59;6.03;;;2.50;;
39448;SDS011;25151;45.566;9.382;2023-03-20T20:40:02;3.72;;;2.45;;
39448;SDS011;25151;45.566;9.382;2023-03-20T20:43:05;3.10;;;2.05;;
39448;SDS011;25151;45.566;9.382;2023-03-20T20:46:09;4.88;;;2.05;;
39448;SDS011;25151;45.566;9.382;2023-03-20T20:49:11;3.72;;;2.35;;
39448;SDS011;25151;45.566;9.382;2023-03-20T20:52:14;3.78;;;1.98;;
39448;SDS011;25151;45.566;9.382;2023-03-20T20:55:17;4.35;;;2.55;;
39448;SDS011;25151;45.566;9.382;2023-03-20T20:58:21;4.95;;;2.63;;
39448;SDS011;25151;45.566;9.382;2023-03-20T21:01:24;3.45;;;2.50;;
39448;SDS011;25151;45.566;9.382;2023-03-20T21:04:26;5.05;;;2.30;;
39448;SDS011;25151;45.566;9.382;2023-03-20T21:07:31;3.70;;;2.30;;
39448;SDS011;25151;45.566;9.382;2023-03-20T21:10:34;4.72;;;2.20;;
39448;SDS011;25151;45.566;9.382;2023-03-20T21:13:38;4.35;;;2.17;;
39448;SDS011;25151;45.566;9.382;2023-03-20T21:16:41;3.70;;;2.42;;
39448;SDS011;25151;45.566;9.382;2023-03-20T21:19:46;4.30;;;2.25;;
39448;SDS011;25151;45.566;9.382;2023-03-20T21:22:49;6.93;;;2.58;;
39448;SDS011;25151;45.566;9.382;2023-03-20T21:25:52;4.43;;;2.25;;
39448;SDS011;25151;45.566;9.382;2023-03-20T21:28:54;3.50;;;2.15;;
39448;SDS011;25151;45.566;9.382;2023-03-20T21:31:56;3.08;;;2.38;;
39448;SDS011;25151;45.566;9.382;2023-03-20T21:34:58;3.90;;;2.60;;
39448;SDS011;25151;45.566;9.382;2023-03-20T21:38:01;3.20;;;1.75;;
39448;SDS011;25151;45.566;9.382;2023-03-20T21:41:09;3.10;;;2.25;;
39448;SDS011;25151;45.566;9.382;2023-03-20T21:44:13;2.83;;;2.03;;
39448;SDS011;25151;45.566;9.382;2023-03-20T21:47:17;2.65;;;2.10;;
39448;SDS011;25151;45.566;9.382;2023-03-20T21:50:20;3.22;;;1.90;;
39448;SDS011;25151;45.566;9.382;2023-03-20T21:53:23;3.47;;;2.20;;
39448;SDS011;25151;45.566;9.382;2023-03-20T21:56:26;3.88;;;2.13;;
39448;SDS011;25151;45.566;9.382;2023-03-20T21:59:30;2.83;;;2.00;;
39448;SDS011;25151;45.566;9.382;2023-03-20T22:02:34;2.60;;;1.73;;
39448;SDS011;25151;45.566;9.382;2023-03-20T22:05:40;3.85;;;2.08;;
39448;SDS011;25151;45.566;9.382;2023-03-20T22:08:43;7.25;;;2.78;;
39448;SDS011;25151;45.566;9.382;2023-03-20T22:11:46;3.13;;;2.10;;
39448;SDS011;25151;45.566;9.382;2023-03-20T22:14:54;3.42;;;2.72;;
39448;SDS011;25151;45.566;9.382;2023-03-20T22:17:57;8.20;;;2.13;;
39448;SDS011;25151;45.566;9.382;2023-03-20T22:21:01;5.00;;;2.92;;
39448;SDS011;25151;45.566;9.382;2023-03-20T22:24:05;4.07;;;2.30;;
39448;SDS011;25151;45.566;9.382;2023-03-20T22:27:09;2.42;;;2.20;;
39448;SDS011;25151;45.566;9.382;2023-03-20T22:30:11;2.58;;;1.70;;
39448;SDS011;25151;45.566;9.382;2023-03-20T22:33:14;4.50;;;2.08;;
39448;SDS011;25151;45.566;9.382;2023-03-20T22:36:31;2.38;;;1.83;;
39448;SDS011;25151;45.566;9.382;2023-03-20T22:40:06;4.25;;;2.08;;
39448;SDS011;25151;45.566;9.382;2023-03-20T22:43:31;2.45;;;1.92;;
39448;SDS011;25151;45.566;9.382;2023-03-20T22:46:36;3.75;;;2.20;;
39448;SDS011;25151;45.566;9.382;2023-03-20T22:49:41;2.22;;;1.85;;
39448;SDS011;25151;45.566;9.382;2023-03-20T22:52:55;2.88;;;1.80;;
39448;SDS011;25151;45.566;9.382;2023-03-20T22:56:03;4.13;;;2.13;;
39448;SDS011;25151;45.566;9.382;2023-03-20T22:59:06;3.17;;;1.98;;
39448;SDS011;25151;45.566;9.382;2023-03-20T23:02:08;2.28;;;1.65;;
39448;SDS011;25151;45.566;9.382;2023-03-20T23:05:10;2.17;;;1.80;;
39448;SDS011;25151;45.566;9.382;2023-03-20T23:08:21;2.33;;;1.90;;
39448;SDS011;25151;45.566;9.382;2023-03-20T23:11:25;3.05;;;2.20;;
39448;SDS011;25151;45.566;9.382;2023-03-20T23:14:28;3.33;;;2.10;;
39448;SDS011;25151;45.566;9.382;2023-03-20T23:17:34;4.20;;;2.25;;
39448;SDS011;25151;45.566;9.382;2023-03-20T23:20:38;3.92;;;2.40;;
39448;SDS011;25151;45.566;9.382;2023-03-20T23:23:44;3.00;;;2.40;;
39448;SDS011;25151;45.566;9.382;2023-03-20T23:26:59;4.60;;;2.88;;
39448;SDS011;25151;45.566;9.382;2023-03-20T23:30:07;4.40;;;3.08;;
39448;SDS011;25151;45.566;9.382;2023-03-20T23:33:11;3.47;;;2.65;;
39448;SDS011;25151;45.566;9.382;2023-03-20T23:36:17;3.47;;;2.58;;
39448;SDS011;25151;45.566;9.382;2023-03-20T23:39:22;8.90;;;3.03;;
39448;SDS011;25151;45.566;9.382;2023-03-20T23:42:28;4.63;;;2.70;;
39448;SDS011;25151;45.566;9.382;2023-03-20T23:45:32;3.33;;;2.42;;
39448;SDS011;25151;45.566;9.382;2023-03-20T23:48:39;5.65;;;2.85;;
39448;SDS011;25151;45.566;9.382;2023-03-20T23:52:08;3.88;;;2.42;;
39448;SDS011;25151;45.566;9.382;2023-03-20T23:59:28;3.38;;;2.42;;
